sensor_id;sensor_type;location;lat;lon;timestamp;pressure;altitude;pressure_sealevel;temperature;humidity
54816;BME280;40715;55.752;37.884;2023-04-23T00:02:18;98794.31;;;32.09;25.84
54816;BME280;40715;55.752;37.884;2023-04-23T00:04:49;98789.25;;;32.06;25.55
54816;BME280;40715;55.752;37.884;2023-04-23T00:07:20;98791.78;;;32.08;25.76
54816;BME280;40715;55.752;37.884;2023-04-23T00:09:49;98796.41;;;32.07;25.72
54816;BME280;40715;55.752;37.884;2023-04-23T00:12:18;98799.97;;;32.08;25.84
54816;BME280;40715;55.752;37.884;2023-04-23T00:14:46;98798.28;;;32.07;25.50
54816;BME280;40715;55.752;37.884;2023-04-23T00:17:14;98801.00;;;32.07;25.43
54816;BME280;40715;55.752;37.884;2023-04-23T00:19:41;98804.59;;;32.07;25.69
54816;BME280;40715;55.752;37.884;2023-04-23T00:22:08;98801.00;;;32.07;25.66
54816;BME280;40715;55.752;37.884;2023-04-23T00:24:35;98794.91;;;32.05;25.88
54816;BME280;40715;55.752;37.884;2023-04-23T00:27:05;98805.63;;;32.06;25.63
54816;BME280;40715;55.752;37.884;2023-04-23T00:29:32;98804.59;;;32.07;25.92
54816;BME280;40715;55.752;37.884;2023-04-23T00:31:59;98800.75;;;32.01;25.69
54816;BME280;40715;55.752;37.884;2023-04-23T00:34:26;98809.16;;;32.07;26.05
54816;BME280;40715;55.752;37.884;2023-04-23T00:36:53;98803.88;;;31.98;25.90
54816;BME280;40715;55.752;37.884;2023-04-23T00:39:21;98803.28;;;32.03;26.12
54816;BME280;40715;55.752;37.884;2023-04-23T00:41:48;98804.78;;;32.06;25.63
54816;BME280;40715;55.752;37.884;2023-04-23T00:44:15;98814.63;;;32.07;25.93
54816;BME280;40715;55.752;37.884;2023-04-23T00:46:42;98814.63;;;32.07;26.04
54816;BME280;40715;55.752;37.884;2023-04-23T00:49:10;98806.41;;;32.00;26.10
54816;BME280;40715;55.752;37.884;2023-04-23T00:51:37;98810.34;;;31.97;25.75
54816;BME280;40715;55.752;37.884;2023-04-23T00:54:23;98823.81;;;32.21;25.71
54816;BME280;40715;55.752;37.884;2023-04-23T00:56:49;98826.19;;;32.09;25.98
54816;BME280;40715;55.752;37.884;2023-04-23T00:59:17;98825.53;;;32.07;25.80
54816;BME280;40715;55.752;37.884;2023-04-23T01:01:45;98828.25;;;32.07;25.94
54816;BME280;40715;55.752;37.884;2023-04-23T01:04:16;98833.88;;;32.05;26.15
54816;BME280;40715;55.752;37.884;2023-04-23T01:06:44;98822.06;;;31.98;26.20
54816;BME280;40715;55.752;37.884;2023-04-23T01:09:30;98821.56;;;32.09;25.94
54816;BME280;40715;55.752;37.884;2023-04-23T01:11:58;98827.81;;;32.03;26.28
54816;BME280;40715;55.752;37.884;2023-04-23T01:14:28;98832.22;;;32.04;25.98
54816;BME280;40715;55.752;37.884;2023-04-23T01:16:55;98825.91;;;32.04;25.79
54816;BME280;40715;55.752;37.884;2023-04-23T01:19:22;98830.53;;;32.03;26.07
54816;BME280;40715;55.752;37.884;2023-04-23T01:21:49;98824.03;;;32.04;25.98
54816;BME280;40715;55.752;37.884;2023-04-23T01:24:17;98825.06;;;32.03;25.95
54816;BME280;40715;55.752;37.884;2023-04-23T01:26:44;98832.22;;;32.04;26.11
54816;BME280;40715;55.752;37.884;2023-04-23T01:29:12;98826.97;;;32.03;26.13
54816;BME280;40715;55.752;37.884;2023-04-23T01:31:40;98823.19;;;32.04;26.11
54816;BME280;40715;55.752;37.884;2023-04-23T01:34:07;98829.50;;;32.04;26.22
54816;BME280;40715;55.752;37.884;2023-04-23T01:36:35;98829.03;;;32.00;25.83
54816;BME280;40715;55.752;37.884;2023-04-23T01:39:02;98833.25;;;32.03;25.93
54816;BME280;40715;55.752;37.884;2023-04-23T01:41:29;98830.91;;;32.00;26.33
54816;BME280;40715;55.752;37.884;2023-04-23T01:43:56;98838.69;;;32.03;26.09
54816;BME280;40715;55.752;37.884;2023-04-23T01:46:23;98829.03;;;32.00;26.28
54816;BME280;40715;55.752;37.884;2023-04-23T01:48:51;98834.09;;;32.04;25.99
54816;BME280;40715;55.752;37.884;2023-04-23T01:51:18;98833.63;;;32.00;26.19
54816;BME280;40715;55.752;37.884;2023-04-23T01:53:45;98837.88;;;32.03;26.25
54816;BME280;40715;55.752;37.884;2023-04-23T01:56:15;98840.78;;;32.01;25.87
54816;BME280;40715;55.752;37.884;2023-04-23T01:58:42;98836.38;;;32.00;26.32
54816;BME280;40715;55.752;37.884;2023-04-23T02:01:09;98845.16;;;32.02;26.26
54816;BME280;40715;55.752;37.884;2023-04-23T02:03:37;98838.41;;;31.98;25.83
54816;BME280;40715;55.752;37.884;2023-04-23T02:06:04;98845.38;;;32.00;26.19
54816;BME280;40715;55.752;37.884;2023-04-23T02:08:31;98844.16;;;32.03;26.26
54816;BME280;40715;55.752;37.884;2023-04-23T02:10:58;98857.97;;;32.01;26.02
54816;BME280;40715;55.752;37.884;2023-04-23T02:13:25;98847.91;;;32.02;25.94
54816;BME280;40715;55.752;37.884;2023-04-23T02:15:52;98846.22;;;32.01;26.25
54816;BME280;40715;55.752;37.884;2023-04-23T02:18:19;98853.53;;;32.00;26.04
54816;BME280;40715;55.752;37.884;2023-04-23T02:20:46;98852.03;;;31.98;26.08
54816;BME280;40715;55.752;37.884;2023-04-23T02:23:13;98847.66;;;31.97;26.20
54816;BME280;40715;55.752;37.884;2023-04-23T02:25:40;98855.25;;;32.01;26.32
54816;BME280;40715;55.752;37.884;2023-04-23T02:28:08;98862.56;;;32.01;25.80
54816;BME280;40715;55.752;37.884;2023-04-23T02:30:39;98861.72;;;32.00;26.12
54816;BME280;40715;55.752;37.884;2023-04-23T02:33:11;98850.38;;;31.97;26.03
54816;BME280;40715;55.752;37.884;2023-04-23T02:35:38;98861.91;;;31.99;25.85
54816;BME280;40715;55.752;37.884;2023-04-23T02:38:05;98866.31;;;32.00;26.22
54816;BME280;40715;55.752;37.884;2023-04-23T02:40:32;98861.72;;;32.00;25.90
54816;BME280;40715;55.752;37.884;2023-04-23T02:42:59;98862.75;;;31.99;25.86
54816;BME280;40715;55.752;37.884;2023-04-23T02:45:26;98859.19;;;31.99;25.82
54816;BME280;40715;55.752;37.884;2023-04-23T02:47:53;98863.41;;;32.01;25.82
54816;BME280;40715;55.752;37.884;2023-04-23T02:50:21;98869.69;;;32.02;26.03
54816;BME280;40715;55.752;37.884;2023-04-23T02:52:48;98859.66;;;32.03;25.76
54816;BME280;40715;55.752;37.884;2023-04-23T02:55:15;98871.84;;;32.07;26.12
54816;BME280;40715;55.752;37.884;2023-04-23T02:57:42;98872.03;;;32.05;25.85
54816;BME280;40715;55.752;37.884;2023-04-23T03:00:11;98877.47;;;32.05;26.11
54816;BME280;40715;55.752;37.884;2023-04-23T03:02:40;98878.34;;;32.06;26.06
54816;BME280;40715;55.752;37.884;2023-04-23T03:05:08;98880.19;;;32.05;26.08
54816;BME280;40715;55.752;37.884;2023-04-23T03:07:35;98879.19;;;32.06;25.93
54816;BME280;40715;55.752;37.884;2023-04-23T03:10:02;98881.69;;;32.08;25.72
54816;BME280;40715;55.752;37.884;2023-04-23T03:12:30;98879.38;;;32.05;26.02
54816;BME280;40715;55.752;37.884;2023-04-23T03:14:57;98885.47;;;32.07;26.07
54816;BME280;40715;55.752;37.884;2023-04-23T03:17:24;98891.78;;;32.07;26.11
54816;BME280;40715;55.752;37.884;2023-04-23T03:19:51;98893.63;;;32.07;26.19
54816;BME280;40715;55.752;37.884;2023-04-23T03:22:18;98882.56;;;32.08;25.73
54816;BME280;40715;55.752;37.884;2023-04-23T03:24:45;98892.59;;;32.08;25.66
54816;BME280;40715;55.752;37.884;2023-04-23T03:27:12;98897.84;;;32.09;26.08
54816;BME280;40715;55.752;37.884;2023-04-23T03:29:39;98897.03;;;32.09;26.05
54816;BME280;40715;55.752;37.884;2023-04-23T03:32:07;98901.25;;;32.11;25.73
54816;BME280;40715;55.752;37.884;2023-04-23T03:34:34;98880.78;;;32.00;26.14
54816;BME280;40715;55.752;37.884;2023-04-23T03:37:01;98900.38;;;32.11;26.09
54816;BME280;40715;55.752;37.884;2023-04-23T03:39:28;98904.81;;;32.12;26.19
54816;BME280;40715;55.752;37.884;2023-04-23T03:41:55;98906.03;;;32.09;26.26
54816;BME280;40715;55.752;37.884;2023-04-23T03:44:23;98914.53;;;32.14;26.18
54816;BME280;40715;55.752;37.884;2023-04-23T03:46:50;98912.63;;;32.15;25.92
54816;BME280;40715;55.752;37.884;2023-04-23T03:49:17;98911.59;;;32.16;25.76
54816;BME280;40715;55.752;37.884;2023-04-23T03:51:44;98912.63;;;32.15;25.77
54816;BME280;40715;55.752;37.884;2023-04-23T03:54:11;98921.28;;;32.18;25.71
54816;BME280;40715;55.752;37.884;2023-04-23T03:56:38;98924.84;;;32.19;26.07
54816;BME280;40715;55.752;37.884;2023-04-23T03:59:05;98930.09;;;32.21;26.02
54816;BME280;40715;55.752;37.884;2023-04-23T04:01:32;98932.63;;;32.22;25.92
54816;BME280;40715;55.752;37.884;2023-04-23T04:04:01;98924.44;;;32.22;26.03
54816;BME280;40715;55.752;37.884;2023-04-23T04:06:29;98933.28;;;32.24;25.89
54816;BME280;40715;55.752;37.884;2023-04-23T04:08:57;98932.63;;;32.22;26.22
54816;BME280;40715;55.752;37.884;2023-04-23T04:11:24;98929.72;;;32.24;26.06
54816;BME280;40715;55.752;37.884;2023-04-23T04:13:52;98932.81;;;32.21;25.75
54816;BME280;40715;55.752;37.884;2023-04-23T04:16:19;98932.44;;;32.24;26.05
54816;BME280;40715;55.752;37.884;2023-04-23T04:18:46;98934.13;;;32.25;25.56
54816;BME280;40715;55.752;37.884;2023-04-23T04:21:13;98942.13;;;32.26;25.94
54816;BME280;40715;55.752;37.884;2023-04-23T04:23:43;98943.13;;;32.25;25.88
54816;BME280;40715;55.752;37.884;2023-04-23T04:26:10;98942.13;;;32.26;25.95
54816;BME280;40715;55.752;37.884;2023-04-23T04:28:37;98943.34;;;32.24;25.94
54816;BME280;40715;55.752;37.884;2023-04-23T04:31:05;98942.50;;;32.23;25.99
54816;BME280;40715;55.752;37.884;2023-04-23T04:33:34;98938.94;;;32.23;26.16
54816;BME280;40715;55.752;37.884;2023-04-23T04:36:01;98950.88;;;32.22;26.14
54816;BME280;40715;55.752;37.884;2023-04-23T04:38:29;98945.22;;;32.23;25.74
54816;BME280;40715;55.752;37.884;2023-04-23T04:40:56;98949.66;;;32.24;26.04
54816;BME280;40715;55.752;37.884;2023-04-23T04:43:27;98950.47;;;32.25;26.15
54816;BME280;40715;55.752;37.884;2023-04-23T04:45:54;98959.50;;;32.25;25.61
54816;BME280;40715;55.752;37.884;2023-04-23T04:48:21;98963.28;;;32.24;25.57
54816;BME280;40715;55.752;37.884;2023-04-23T04:50:48;98960.34;;;32.26;25.66
54816;BME280;40715;55.752;37.884;2023-04-23T04:53:15;98966.00;;;32.24;25.70
54816;BME280;40715;55.752;37.884;2023-04-23T04:55:42;98960.53;;;32.24;25.93
54816;BME280;40715;55.752;37.884;2023-04-23T04:58:09;98966.63;;;32.26;25.86
54816;BME280;40715;55.752;37.884;2023-04-23T05:00:36;98962.88;;;32.27;26.02
54816;BME280;40715;55.752;37.884;2023-04-23T05:03:03;98963.06;;;32.26;25.89
54816;BME280;40715;55.752;37.884;2023-04-23T05:05:31;98964.78;;;32.27;25.66
54816;BME280;40715;55.752;37.884;2023-04-23T05:07:58;98969.84;;;32.30;25.45
54816;BME280;40715;55.752;37.884;2023-04-23T05:10:28;98974.44;;;32.29;26.04
54816;BME280;40715;55.752;37.884;2023-04-23T05:12:56;98982.59;;;32.29;26.16
54816;BME280;40715;55.752;37.884;2023-04-23T05:15:23;98983.28;;;32.31;25.61
54816;BME280;40715;55.752;37.884;2023-04-23T05:17:50;98982.25;;;32.32;25.61
54816;BME280;40715;55.752;37.884;2023-04-23T05:20:19;98978.66;;;32.32;25.84
54816;BME280;40715;55.752;37.884;2023-04-23T05:22:47;98977.34;;;32.28;25.71
54816;BME280;40715;55.752;37.884;2023-04-23T05:25:14;98986.00;;;32.31;25.87
54816;BME280;40715;55.752;37.884;2023-04-23T05:27:41;98987.69;;;32.32;26.19
54816;BME280;40715;55.752;37.884;2023-04-23T05:30:10;98990.59;;;32.31;25.79
54816;BME280;40715;55.752;37.884;2023-04-23T05:32:37;98993.31;;;32.31;26.06
54816;BME280;40715;55.752;37.884;2023-04-23T05:35:05;98995.22;;;32.30;25.71
54816;BME280;40715;55.752;37.884;2023-04-23T05:37:34;98998.75;;;32.31;25.74
54816;BME280;40715;55.752;37.884;2023-04-23T05:40:02;98996.91;;;32.31;25.30
54816;BME280;40715;55.752;37.884;2023-04-23T05:42:33;98993.31;;;32.31;25.52
54816;BME280;40715;55.752;37.884;2023-04-23T05:45:02;99002.34;;;32.31;25.43
54816;BME280;40715;55.752;37.884;2023-04-23T05:47:32;98997.94;;;32.30;25.20
54816;BME280;40715;55.752;37.884;2023-04-23T05:50:01;98996.22;;;32.29;25.14
54816;BME280;40715;55.752;37.884;2023-04-23T05:52:33;98996.22;;;32.29;24.91
54816;BME280;40715;55.752;37.884;2023-04-23T05:55:05;99000.00;;;32.28;24.87
54816;BME280;40715;55.752;37.884;2023-04-23T05:57:33;98999.81;;;32.30;25.32
54816;BME280;40715;55.752;37.884;2023-04-23T06:00:00;99002.94;;;32.27;25.16
54816;BME280;40715;55.752;37.884;2023-04-23T06:02:31;99000.66;;;32.30;25.25
54816;BME280;40715;55.752;37.884;2023-04-23T06:04:59;98994.38;;;32.30;25.22
54816;BME280;40715;55.752;37.884;2023-04-23T06:07:27;99007.13;;;32.29;24.92
54816;BME280;40715;55.752;37.884;2023-04-23T06:09:54;99002.75;;;32.28;24.88
54816;BME280;40715;55.752;37.884;2023-04-23T06:12:21;99008.00;;;32.30;25.13
54816;BME280;40715;55.752;37.884;2023-04-23T06:14:48;99008.00;;;32.30;24.84
54816;BME280;40715;55.752;37.884;2023-04-23T06:17:15;99012.59;;;32.29;25.04
54816;BME280;40715;55.752;37.884;2023-04-23T06:19:42;99022.66;;;32.29;25.07
54816;BME280;40715;55.752;37.884;2023-04-23T06:22:10;99023.50;;;32.29;25.09
54816;BME280;40715;55.752;37.884;2023-04-23T06:24:37;99024.16;;;32.31;24.74
54816;BME280;40715;55.752;37.884;2023-04-23T06:27:05;99023.28;;;32.31;24.61
54816;BME280;40715;55.752;37.884;2023-04-23T06:29:32;99029.63;;;32.31;24.89
54816;BME280;40715;55.752;37.884;2023-04-23T06:32:02;99033.38;;;32.30;24.83
54816;BME280;40715;55.752;37.884;2023-04-23T06:34:31;99031.47;;;32.31;24.49
54816;BME280;40715;55.752;37.884;2023-04-23T06:36:58;99031.31;;;32.32;24.81
54816;BME280;40715;55.752;37.884;2023-04-23T06:39:25;99038.63;;;32.32;24.70
54816;BME280;40715;55.752;37.884;2023-04-23T06:41:52;99035.91;;;32.32;24.63
54816;BME280;40715;55.752;37.884;2023-04-23T06:44:19;99033.56;;;32.29;24.49
54816;BME280;40715;55.752;37.884;2023-04-23T06:46:46;99033.16;;;32.32;25.01
54816;BME280;40715;55.752;37.884;2023-04-23T06:49:13;99046.81;;;32.32;25.30
54816;BME280;40715;55.752;37.884;2023-04-23T06:51:41;99048.69;;;32.31;25.60
54816;BME280;40715;55.752;37.884;2023-04-23T06:54:08;99043.06;;;32.33;26.18
54816;BME280;40715;55.752;37.884;2023-04-23T06:56:35;99044.75;;;32.34;26.02
54816;BME280;40715;55.752;37.884;2023-04-23T06:59:02;99040.31;;;32.33;26.13
54816;BME280;40715;55.752;37.884;2023-04-23T07:01:29;99042.84;;;32.34;26.62
54816;BME280;40715;55.752;37.884;2023-04-23T07:03:56;99045.38;;;32.36;26.41
54816;BME280;40715;55.752;37.884;2023-04-23T07:06:23;99047.09;;;32.37;26.43
54816;BME280;40715;55.752;37.884;2023-04-23T07:08:50;99046.41;;;32.35;26.47
54816;BME280;40715;55.752;37.884;2023-04-23T07:11:17;99058.19;;;32.35;26.62
54816;BME280;40715;55.752;37.884;2023-04-23T07:13:44;99050.66;;;32.38;26.60
54816;BME280;40715;55.752;37.884;2023-04-23T07:16:11;99052.34;;;32.39;26.23
54816;BME280;40715;55.752;37.884;2023-04-23T07:18:38;99048.78;;;32.38;26.50
54816;BME280;40715;55.752;37.884;2023-04-23T07:21:05;99042.28;;;32.39;26.10
54816;BME280;40715;55.752;37.884;2023-04-23T07:23:32;99043.97;;;32.40;26.38
54816;BME280;40715;55.752;37.884;2023-04-23T07:25:59;99045.88;;;32.40;26.53
54816;BME280;40715;55.752;37.884;2023-04-23T07:28:26;99055.72;;;32.41;26.57
54816;BME280;40715;55.752;37.884;2023-04-23T07:30:53;99055.28;;;32.37;26.27
54816;BME280;40715;55.752;37.884;2023-04-23T07:33:21;99049.63;;;32.39;26.43
54816;BME280;40715;55.752;37.884;2023-04-23T07:35:48;99053.66;;;32.43;26.47
54816;BME280;40715;55.752;37.884;2023-04-23T07:38:16;99056.59;;;32.41;26.75
54816;BME280;40715;55.752;37.884;2023-04-23T07:40:43;99047.09;;;32.37;26.66
54816;BME280;40715;55.752;37.884;2023-04-23T07:43:10;99058.25;;;32.42;26.71
54816;BME280;40715;55.752;37.884;2023-04-23T07:45:37;99060.16;;;32.42;26.77
54816;BME280;40715;55.752;37.884;2023-04-23T07:48:04;99052.63;;;32.44;26.42
54816;BME280;40715;55.752;37.884;2023-04-23T07:50:31;99050.94;;;32.43;26.76
54816;BME280;40715;55.752;37.884;2023-04-23T07:52:58;99051.78;;;32.43;26.59
54816;BME280;40715;55.752;37.884;2023-04-23T07:55:26;99051.78;;;32.43;26.64
54816;BME280;40715;55.752;37.884;2023-04-23T07:57:53;99054.31;;;32.45;26.66
54816;BME280;40715;55.752;37.884;2023-04-23T08:00:20;99049.91;;;32.44;26.35
54816;BME280;40715;55.752;37.884;2023-04-23T08:02:47;99043.59;;;32.43;26.66
54816;BME280;40715;55.752;37.884;2023-04-23T08:05:15;99033.06;;;32.40;26.45
54816;BME280;40715;55.752;37.884;2023-04-23T08:07:42;99042.56;;;32.44;26.39
54816;BME280;40715;55.752;37.884;2023-04-23T08:10:09;99049.72;;;32.45;26.46
54816;BME280;40715;55.752;37.884;2023-04-23T08:12:37;99048.66;;;32.46;25.95
54816;BME280;40715;55.752;37.884;2023-04-23T08:15:04;99040.59;;;32.38;26.10
54816;BME280;40715;55.752;37.884;2023-04-23T08:17:32;99057.91;;;32.45;26.39
54816;BME280;40715;55.752;37.884;2023-04-23T08:19:59;99057.03;;;32.45;26.32
54816;BME280;40715;55.752;37.884;2023-04-23T08:22:26;99045.88;;;32.40;25.87
54816;BME280;40715;55.752;37.884;2023-04-23T08:24:53;99048.84;;;32.45;26.22
54816;BME280;40715;55.752;37.884;2023-04-23T08:27:20;99057.03;;;32.45;25.70
54816;BME280;40715;55.752;37.884;2023-04-23T08:29:48;99051.59;;;32.45;25.75
54816;BME280;40715;55.752;37.884;2023-04-23T08:32:16;99052.44;;;32.45;25.68
54816;BME280;40715;55.752;37.884;2023-04-23T08:34:43;99053.47;;;32.44;26.01
54816;BME280;40715;55.752;37.884;2023-04-23T08:37:10;99048.84;;;32.45;25.51
54816;BME280;40715;55.752;37.884;2023-04-23T08:39:49;99050.56;;;32.46;25.82
54816;BME280;40715;55.752;37.884;2023-04-23T08:42:29;99040.47;;;32.46;26.01
54816;BME280;40715;55.752;37.884;2023-04-23T08:45:02;99053.47;;;32.44;25.53
54816;BME280;40715;55.752;37.884;2023-04-23T08:47:31;99055.53;;;32.42;25.69
54816;BME280;40715;55.752;37.884;2023-04-23T08:49:58;99045.69;;;32.41;25.95
54816;BME280;40715;55.752;37.884;2023-04-23T08:52:26;99041.44;;;32.39;25.68
54816;BME280;40715;55.752;37.884;2023-04-23T08:54:59;99052.78;;;32.42;25.87
54816;BME280;40715;55.752;37.884;2023-04-23T08:57:28;99046.72;;;32.40;26.04
54816;BME280;40715;55.752;37.884;2023-04-23T08:59:57;99043.78;;;32.42;25.84
54816;BME280;40715;55.752;37.884;2023-04-23T09:02:25;99048.22;;;32.43;26.02
54816;BME280;40715;55.752;37.884;2023-04-23T09:04:53;99036.28;;;32.44;25.49
54816;BME280;40715;55.752;37.884;2023-04-23T09:07:22;99029.78;;;32.45;25.49
54816;BME280;40715;55.752;37.884;2023-04-23T09:09:49;99016.13;;;32.45;25.28
54816;BME280;40715;55.752;37.884;2023-04-23T09:12:16;99021.59;;;32.45;25.11
54816;BME280;40715;55.752;37.884;2023-04-23T09:14:43;99020.56;;;32.46;25.16
54816;BME280;40715;55.752;37.884;2023-04-23T09:17:10;99027.72;;;32.47;25.24
54816;BME280;40715;55.752;37.884;2023-04-23T09:19:41;99018.47;;;32.48;25.15
54816;BME280;40715;55.752;37.884;2023-04-23T09:22:08;99028.16;;;32.50;25.29
54816;BME280;40715;55.752;37.884;2023-04-23T09:24:35;99027.34;;;32.50;25.60
54816;BME280;40715;55.752;37.884;2023-04-23T09:27:04;99029.38;;;32.48;25.49
54816;BME280;40715;55.752;37.884;2023-04-23T09:29:31;99028.16;;;32.50;25.67
54816;BME280;40715;55.752;37.884;2023-04-23T09:32:08;99021.09;;;32.56;25.31
54816;BME280;40715;55.752;37.884;2023-04-23T09:34:35;99022.91;;;32.49;25.34
54816;BME280;40715;55.752;37.884;2023-04-23T09:37:06;99024.59;;;32.50;25.55
54816;BME280;40715;55.752;37.884;2023-04-23T09:39:35;99026.47;;;32.49;25.40
54816;BME280;40715;55.752;37.884;2023-04-23T09:42:04;99022.25;;;32.47;25.41
54816;BME280;40715;55.752;37.884;2023-04-23T09:44:32;99021.41;;;32.46;25.21
54816;BME280;40715;55.752;37.884;2023-04-23T09:47:06;99020.84;;;32.51;25.21
54816;BME280;40715;55.752;37.884;2023-04-23T09:49:45;99012.19;;;32.47;25.27
54816;BME280;40715;55.752;37.884;2023-04-23T09:52:13;99025.63;;;32.49;25.25
54816;BME280;40715;55.752;37.884;2023-04-23T09:54:41;99015.13;;;32.46;25.49
54816;BME280;40715;55.752;37.884;2023-04-23T09:57:10;99008.63;;;32.47;25.30
54816;BME280;40715;55.752;37.884;2023-04-23T09:59:37;99005.03;;;32.46;25.37
54816;BME280;40715;55.752;37.884;2023-04-23T10:02:13;99014.16;;;33.12;24.77
54816;BME280;40715;55.752;37.884;2023-04-23T10:04:41;99012.91;;;32.56;24.83
54816;BME280;40715;55.752;37.884;2023-04-23T10:07:08;99019.94;;;32.44;24.96
54816;BME280;40715;55.752;37.884;2023-04-23T10:09:45;99017.34;;;32.42;24.99
54816;BME280;40715;55.752;37.884;2023-04-23T10:12:13;99004.97;;;32.40;25.03
54816;BME280;40715;55.752;37.884;2023-04-23T10:14:44;99001.59;;;32.38;24.37
54816;BME280;40715;55.752;37.884;2023-04-23T10:17:12;99001.97;;;32.34;23.36
54816;BME280;40715;55.752;37.884;2023-04-23T10:19:40;99005.53;;;32.35;23.39
54816;BME280;40715;55.752;37.884;2023-04-23T10:22:09;98994.63;;;32.35;23.08
54816;BME280;40715;55.752;37.884;2023-04-23T10:24:44;98993.59;;;32.36;23.00
54816;BME280;40715;55.752;37.884;2023-04-23T10:27:14;98993.59;;;32.36;23.07
54816;BME280;40715;55.752;37.884;2023-04-23T10:29:59;98999.06;;;32.36;22.84
54816;BME280;40715;55.752;37.884;2023-04-23T10:32:26;99002.16;;;32.33;22.79
54816;BME280;40715;55.752;37.884;2023-04-23T10:34:53;98995.50;;;32.35;22.87
54816;BME280;40715;55.752;37.884;2023-04-23T10:37:21;98991.72;;;32.37;22.96
54816;BME280;40715;55.752;37.884;2023-04-23T10:39:49;98993.78;;;32.34;23.10
54816;BME280;40715;55.752;37.884;2023-04-23T10:42:19;98989.66;;;32.39;23.52
54816;BME280;40715;55.752;37.884;2023-04-23T10:44:47;98981.66;;;32.37;23.22
54816;BME280;40715;55.752;37.884;2023-04-23T10:47:17;98984.41;;;32.37;23.28
54816;BME280;40715;55.752;37.884;2023-04-23T10:49:47;98984.59;;;32.35;23.19
54816;BME280;40715;55.752;37.884;2023-04-23T10:52:15;98971.16;;;32.34;23.19
54816;BME280;40715;55.752;37.884;2023-04-23T10:54:49;98973.22;;;32.32;23.52
54816;BME280;40715;55.752;37.884;2023-04-23T10:57:16;98988.81;;;32.38;23.75
54816;BME280;40715;55.752;37.884;2023-04-23T10:59:54;98980.06;;;32.43;23.25
54816;BME280;40715;55.752;37.884;2023-04-23T11:02:23;98976.41;;;32.35;22.99
54816;BME280;40715;55.752;37.884;2023-04-23T11:04:55;98980.81;;;32.37;22.96
54816;BME280;40715;55.752;37.884;2023-04-23T11:07:31;98976.41;;;32.35;22.72
54816;BME280;40715;55.752;37.884;2023-04-23T11:10:01;98979.97;;;32.36;22.83
54816;BME280;40715;55.752;37.884;2023-04-23T11:12:38;98982.69;;;32.36;22.76
54816;BME280;40715;55.752;37.884;2023-04-23T11:15:11;98972.63;;;32.37;22.85
54816;BME280;40715;55.752;37.884;2023-04-23T11:20:17;98964.66;;;32.35;23.34
54816;BME280;40715;55.752;37.884;2023-04-23T11:22:45;98968.22;;;32.35;22.95
54816;BME280;40715;55.752;37.884;2023-04-23T11:25:26;98970.00;;;32.43;23.21
54816;BME280;40715;55.752;37.884;2023-04-23T11:27:55;98967.38;;;32.35;22.79
54816;BME280;40715;55.752;37.884;2023-04-23T11:30:26;98961.28;;;32.33;23.11
54816;BME280;40715;55.752;37.884;2023-04-23T11:32:55;98961.28;;;32.33;23.20
54816;BME280;40715;55.752;37.884;2023-04-23T11:35:24;98968.63;;;32.32;22.76
54816;BME280;40715;55.752;37.884;2023-04-23T11:37:54;98959.38;;;32.33;23.02
54816;BME280;40715;55.752;37.884;2023-04-23T11:40:22;98968.44;;;32.34;23.09
54816;BME280;40715;55.752;37.884;2023-04-23T11:42:51;98959.38;;;32.33;22.72
54816;BME280;40715;55.752;37.884;2023-04-23T11:45:28;98960.69;;;32.38;22.90
54816;BME280;40715;55.752;37.884;2023-04-23T11:47:57;98951.78;;;32.29;22.77
54816;BME280;40715;55.752;37.884;2023-04-23T11:50:28;98959.19;;;32.35;22.63
54816;BME280;40715;55.752;37.884;2023-04-23T11:52:56;98959.19;;;32.35;22.97
54816;BME280;40715;55.752;37.884;2023-04-23T11:55:23;98942.84;;;32.35;22.62
54816;BME280;40715;55.752;37.884;2023-04-23T11:57:51;98954.13;;;32.32;22.43
54816;BME280;40715;55.752;37.884;2023-04-23T12:00:24;98940.50;;;32.32;22.49
54816;BME280;40715;55.752;37.884;2023-04-23T12:02:57;98950.19;;;32.34;22.43
54816;BME280;40715;55.752;37.884;2023-04-23T12:05:35;98941.63;;;32.38;21.82
54816;BME280;40715;55.752;37.884;2023-04-23T12:08:17;98949.88;;;32.44;21.86
54816;BME280;40715;55.752;37.884;2023-04-23T12:10:46;98951.00;;;32.35;21.44
54816;BME280;40715;55.752;37.884;2023-04-23T12:13:15;98949.53;;;32.32;21.43
54816;BME280;40715;55.752;37.884;2023-04-23T12:15:51;98953.09;;;32.33;21.32
54816;BME280;40715;55.752;37.884;2023-04-23T12:18:19;98953.38;;;32.38;21.28
54816;BME280;40715;55.752;37.884;2023-04-23T12:20:46;98939.47;;;32.33;21.10
54816;BME280;40715;55.752;37.884;2023-04-23T12:23:13;98953.94;;;32.33;20.89
54816;BME280;40715;55.752;37.884;2023-04-23T12:25:40;98943.91;;;32.34;21.00
54816;BME280;40715;55.752;37.884;2023-04-23T12:28:08;98944.94;;;32.33;20.92
54816;BME280;40715;55.752;37.884;2023-04-23T12:30:42;98942.66;;;32.37;20.77
54816;BME280;40715;55.752;37.884;2023-04-23T12:33:10;98946.63;;;32.34;20.64
54816;BME280;40715;55.752;37.884;2023-04-23T12:35:42;98929.59;;;32.32;20.41
54816;BME280;40715;55.752;37.884;2023-04-23T12:38:28;98930.31;;;32.41;20.37
54816;BME280;40715;55.752;37.884;2023-04-23T12:40:57;98939.09;;;32.36;20.23
54816;BME280;40715;55.752;37.884;2023-04-23T12:43:25;98930.28;;;32.34;20.42
54816;BME280;40715;55.752;37.884;2023-04-23T12:45:55;98932.78;;;32.35;20.09
54816;BME280;40715;55.752;37.884;2023-04-23T12:48:22;98930.72;;;32.38;20.27
54816;BME280;40715;55.752;37.884;2023-04-23T12:50:49;98929.00;;;32.37;19.97
54816;BME280;40715;55.752;37.884;2023-04-23T12:53:17;98930.91;;;32.36;19.83
54816;BME280;40715;55.752;37.884;2023-04-23T12:55:44;98922.72;;;32.36;19.80
54816;BME280;40715;55.752;37.884;2023-04-23T12:58:11;98919.16;;;32.35;19.50
54816;BME280;40715;55.752;37.884;2023-04-23T13:00:39;98930.91;;;32.36;19.88